createdAt,value
2017-01-19T00:00:39.333Z,-1.23
2017-01-19T00:01:39.635Z,-1.13
2017-01-19T00:02:39.312Z,-1.23
2017-01-19T00:03:39.352Z,-1.17
2017-01-19T00:04:39.314Z,-1.15
2017-01-19T00:05:39.332Z,-1.27
2017-01-19T00:06:39.424Z,-1.24
2017-01-19T00:07:39.468Z,-1.28
2017-01-19T00:08:39.303Z,-1.24
2017-01-19T00:09:39.443Z,-1.21
2017-01-19T00:10:39.329Z,-1.15
2017-01-19T00:11:39.341Z,-1.27
2017-01-19T00:12:39.297Z,-1.18
2017-01-19T00:13:39.407Z,-1.39
2017-01-19T00:14:39.279Z,-1.24
2017-01-19T00:15:39.318Z,-1.28
2017-01-19T00:16:39.295Z,-1.24
2017-01-19T00:17:39.299Z,-1.27
2017-01-19T00:18:39.338Z,-1.18
2017-01-19T00:19:39.289Z,-1.13
2017-01-19T00:20:39.468Z,-1.25
2017-01-19T00:21:39.318Z,-1.23
2017-01-19T00:22:39.327Z,-1.23
2017-01-19T00:23:39.345Z,-1.35
2017-01-19T00:24:39.284Z,-1.41
2017-01-19T00:25:39.371Z,-1.3
2017-01-19T00:26:39.316Z,-1.38
2017-01-19T00:27:39.301Z,-1.25
2017-01-19T00:28:39.344Z,-1.21
2017-01-19T00:29:39.437Z,-1.17
2017-01-19T00:30:39.321Z,-1.27
2017-01-19T00:31:39.343Z,-1.2
2017-01-19T00:32:39.392Z,-1.15
2017-01-19T00:33:39.289Z,-1.17
2017-01-19T00:34:39.302Z,-1.07
2017-01-19T00:35:39.314Z,-1.07
2017-01-19T00:36:39.324Z,-1.24
2017-01-19T00:37:39.365Z,-1.24
2017-01-19T00:38:39.320Z,-1.09
2017-01-19T00:39:39.370Z,-1.2
2017-01-19T00:40:39.315Z,-1.05
2017-01-19T00:41:39.315Z,-1.07
2017-01-19T00:42:39.289Z,-1.09
2017-01-19T00:43:39.308Z,-1.18
2017-01-19T00:44:39.520Z,-1.03
2017-01-19T00:45:39.335Z,-1.2
2017-01-19T00:46:39.302Z,-1.09
2017-01-19T00:47:39.465Z,-1.02
2017-01-19T00:48:39.302Z,-1.09
2017-01-19T00:49:39.374Z,-1.17
2017-01-19T00:50:39.339Z,-1.21
2017-01-19T00:51:39.333Z,-1.07
2017-01-19T00:52:40.708Z,-1.24
2017-01-19T00:53:39.320Z,-1.06
2017-01-19T00:54:39.327Z,-1.09
2017-01-19T00:55:39.332Z,-1.03
2017-01-19T00:56:39.339Z,-1.17
2017-01-19T00:57:39.335Z,-1.1
2017-01-19T00:58:39.348Z,-1.17
2017-01-19T00:59:39.313Z,-1.1
2017-01-19T01:00:39.345Z,-1.12
2017-01-19T01:01:39.332Z,-1.06
2017-01-19T01:02:39.402Z,-1.27
2017-01-19T01:03:39.354Z,-1.21
2017-01-19T01:04:39.417Z,-1.06
2017-01-19T01:05:39.340Z,-1.06
2017-01-19T01:06:39.402Z,-1.07
2017-01-19T01:07:40.397Z,-1.09
2017-01-19T01:08:39.384Z,-1.15
2017-01-19T01:09:39.379Z,-1.17
2017-01-19T01:10:39.536Z,-1.09
2017-01-19T01:11:39.328Z,-1.17
2017-01-19T01:12:39.336Z,-1.15
2017-01-19T01:13:39.400Z,-1.1
2017-01-19T01:14:39.343Z,-1.12
2017-01-19T01:15:39.319Z,-1.09
2017-01-19T01:16:39.357Z,-1.05
2017-01-19T01:21:57.029Z,-1.07
2017-01-19T01:22:07.029Z,-1.02
2017-01-19T01:23:07.076Z,-1.2
2017-01-19T01:24:07.034Z,-1.05
2017-01-19T01:25:07.045Z,-1.21
2017-01-19T01:26:07.048Z,-1.18
2017-01-19T01:27:07.149Z,-1.07
2017-01-19T01:28:07.032Z,-1.18
2017-01-19T01:29:07.050Z,-1.17
2017-01-19T01:30:07.058Z,-1.18
2017-01-19T01:31:07.221Z,-1.27
2017-01-19T01:32:07.088Z,-1.02
2017-01-19T01:33:07.205Z,-1.05
2017-01-19T01:34:07.145Z,-1.15
2017-01-19T01:35:07.175Z,-1.05
2017-01-19T01:36:07.075Z,-1.13
2017-01-19T01:37:07.088Z,-1.05
2017-01-19T01:38:07.156Z,-1.12
2017-01-19T01:39:07.056Z,-1.15
2017-01-19T01:40:07.087Z,-1.1
2017-01-19T01:41:07.068Z,-1.09
2017-01-19T01:42:07.104Z,-1.1
2017-01-19T01:43:07.141Z,-1.02
2017-01-19T01:44:07.189Z,-1.05
2017-01-19T01:45:07.052Z,-1.07
2017-01-19T01:46:07.065Z,-0.95
2017-01-19T01:47:07.068Z,-1.1
2017-01-19T01:48:07.073Z,-1.09
2017-01-19T01:49:07.056Z,-0.99
2017-01-19T01:50:07.149Z,-0.99
2017-01-19T01:51:07.129Z,-1.09
2017-01-19T01:52:07.245Z,-1.02
2017-01-19T01:53:07.092Z,-0.94
2017-01-19T01:54:07.072Z,-1
2017-01-19T01:55:07.071Z,-0.97
2017-01-19T01:56:07.058Z,-0.91
2017-01-19T01:57:07.093Z,-0.91
2017-01-19T01:58:07.105Z,-1
2017-01-19T01:59:07.067Z,-1
2017-01-19T02:00:07.065Z,-0.95
2017-01-19T02:01:07.111Z,-0.99
2017-01-19T02:02:07.070Z,-0.87
2017-01-19T02:03:07.072Z,-0.89
2017-01-19T02:04:07.119Z,-0.87
2017-01-19T02:05:07.077Z,-0.97
2017-01-19T02:06:07.079Z,-0.89
2017-01-19T02:07:07.079Z,-0.81
2017-01-19T02:08:07.078Z,-0.86
2017-01-19T02:09:07.095Z,-0.92
2017-01-19T02:10:07.225Z,-0.89
2017-01-19T02:11:07.075Z,-0.75
2017-01-19T02:12:07.197Z,-0.86
2017-01-19T02:13:07.097Z,-0.84
2017-01-19T02:14:07.116Z,-0.73
2017-01-19T02:15:07.084Z,-0.68
2017-01-19T02:16:07.072Z,-0.91
2017-01-19T02:17:07.139Z,-0.72
2017-01-19T02:18:07.223Z,-0.73
2017-01-19T02:19:07.104Z,-0.7
2017-01-19T02:20:07.116Z,-0.66
2017-01-19T02:21:07.065Z,-0.66
2017-01-19T02:25:34.726Z,-0.6
2017-01-19T02:26:34.737Z,-0.66
2017-01-19T02:27:34.725Z,-0.54
2017-01-19T02:28:34.732Z,-0.59
2017-01-19T02:29:34.737Z,-0.52
2017-01-19T02:30:34.728Z,-0.47
2017-01-19T02:31:34.755Z,-0.59
2017-01-19T02:32:34.739Z,-0.62
2017-01-19T02:33:34.809Z,-0.62
2017-01-19T02:34:34.740Z,-0.5
2017-01-19T02:35:34.979Z,-0.47
2017-01-19T02:36:34.820Z,-0.54
2017-01-19T02:37:34.826Z,-0.65
2017-01-19T02:38:34.770Z,-0.6
2017-01-19T02:39:34.820Z,-0.51
2017-01-19T02:40:34.752Z,-0.51
2017-01-19T02:41:34.745Z,-0.44
2017-01-19T02:42:34.828Z,-0.51
2017-01-19T02:43:34.898Z,-0.55
2017-01-19T02:44:34.769Z,-0.52
2017-01-19T02:45:34.771Z,-0.39
2017-01-19T02:46:34.758Z,-0.47
2017-01-19T02:47:34.754Z,-0.55
2017-01-19T02:48:34.837Z,-0.5
2017-01-19T02:49:34.790Z,-0.47
2017-01-19T02:50:34.810Z,-0.37
2017-01-19T02:51:34.845Z,-0.62
2017-01-19T02:52:34.880Z,-0.37
2017-01-19T02:53:34.761Z,-0.54
2017-01-19T02:54:34.789Z,-0.37
2017-01-19T02:55:34.750Z,-0.5
2017-01-19T02:56:34.837Z,-0.42
2017-01-19T02:57:34.918Z,-0.44
2017-01-19T02:58:34.859Z,-0.5
2017-01-19T02:59:34.820Z,-0.34
2017-01-19T03:00:34.782Z,-0.5
2017-01-19T03:01:34.756Z,-0.36
2017-01-19T03:02:34.764Z,-0.36
2017-01-19T03:03:34.830Z,-0.47
2017-01-19T03:04:35.021Z,-0.44
2017-01-19T03:05:34.765Z,-0.47
2017-01-19T03:06:34.791Z,-0.41
2017-01-19T03:07:34.766Z,-0.47
2017-01-19T03:08:34.778Z,-0.44
2017-01-19T03:09:34.817Z,-0.37
2017-01-19T03:10:34.795Z,-0.42
2017-01-19T03:11:34.808Z,-0.23
2017-01-19T03:12:34.859Z,-0.31
2017-01-19T03:13:34.777Z,-0.41
2017-01-19T03:14:34.872Z,-0.42
2017-01-19T03:15:34.788Z,-0.33
2017-01-19T03:16:34.857Z,-0.41
2017-01-19T03:17:34.802Z,-0.3
2017-01-19T03:18:34.806Z,-0.39
2017-01-19T03:19:34.837Z,-0.41
2017-01-19T03:20:34.781Z,-0.33
2017-01-19T03:21:34.960Z,-0.45
2017-01-19T03:22:34.789Z,-0.47
2017-01-19T03:29:22.063Z,-0.42
2017-01-19T03:30:20.661Z,-0.34
2017-01-19T03:31:23.451Z,-0.42
2017-01-19T03:32:22.478Z,-0.57
2017-01-19T03:33:22.553Z,-0.5
2017-01-19T03:34:21.916Z,-0.41
2017-01-19T03:35:22.195Z,-0.52
2017-01-19T03:36:22.090Z,-0.45
2017-01-19T03:37:22.561Z,-0.6
2017-01-19T03:38:22.223Z,-0.7
2017-01-19T03:39:22.799Z,-0.5
2017-01-19T03:40:25.410Z,-0.66
2017-01-19T03:41:22.822Z,-0.51
2017-01-19T03:42:20.130Z,-0.59
2017-01-19T03:43:22.943Z,-0.66
2017-01-19T03:44:23.810Z,-0.5
2017-01-19T03:45:23.628Z,-0.51
2017-01-19T03:46:23.210Z,-0.6
2017-01-19T03:47:22.187Z,-0.6
2017-01-19T03:48:24.443Z,-0.63
2017-01-19T03:49:23.399Z,-0.47
2017-01-19T03:50:24.175Z,-0.6
2017-01-19T03:51:23.401Z,-0.51
2017-01-19T03:52:23.440Z,-0.47
2017-01-19T03:53:24.815Z,-0.65
2017-01-19T03:54:23.078Z,-0.5
2017-01-19T03:55:21.706Z,-0.66
2017-01-19T03:56:22.921Z,-0.69
2017-01-19T03:57:22.703Z,-0.72
2017-01-19T03:58:23.962Z,-0.77
2017-01-19T03:59:22.554Z,-0.62
2017-01-19T04:00:22.430Z,-0.7
2017-01-19T04:01:21.530Z,-0.72
2017-01-19T04:02:22.274Z,-0.59
2017-01-19T04:03:23.385Z,-0.77
2017-01-19T04:04:24.447Z,-0.62
2017-01-19T04:09:08.758Z,-0.77
2017-01-19T04:10:09.045Z,-0.73
2017-01-19T04:11:05.931Z,-0.66
2017-01-19T04:12:05.009Z,-0.66
2017-01-19T04:13:05.474Z,-0.77
2017-01-19T04:14:04.898Z,-0.87
2017-01-19T04:15:06.177Z,-0.89
2017-01-19T04:16:05.871Z,-0.78
2017-01-19T04:17:06.127Z,-0.91
2017-01-19T04:18:05.959Z,-0.8
2017-01-19T04:19:05.693Z,-0.86
2017-01-19T04:20:06.365Z,-0.89
2017-01-19T04:21:06.435Z,-0.89
2017-01-19T04:22:06.057Z,-0.94
2017-01-19T04:23:06.428Z,-0.83
2017-01-19T04:24:06.645Z,-0.92
2017-01-19T04:25:06.496Z,-0.81
2017-01-19T04:26:05.439Z,-0.94
2017-01-19T04:27:06.271Z,-0.83
2017-01-19T04:28:06.529Z,-0.89
2017-01-19T04:29:05.952Z,-0.7
2017-01-19T04:30:05.723Z,-0.86
2017-01-19T04:31:05.659Z,-0.95
2017-01-19T04:32:07.332Z,-1.03
2017-01-19T04:33:06.888Z,-1.02
2017-01-19T04:34:06.672Z,-0.75
2017-01-19T04:35:06.397Z,-0.75
2017-01-19T04:36:08.098Z,-0.87
2017-01-19T04:37:06.591Z,-0.92
2017-01-19T04:38:05.662Z,-0.92
2017-01-19T04:39:05.316Z,-0.83
2017-01-19T04:39:59.345Z,-0.84
2017-01-19T04:40:59.329Z,-0.92
2017-01-19T04:41:59.359Z,-0.87
2017-01-19T04:42:59.355Z,-0.97
2017-01-19T04:43:59.363Z,-0.89
2017-01-19T04:44:59.353Z,-0.99
2017-01-19T04:45:59.353Z,-0.95
2017-01-19T04:46:59.365Z,-0.87
2017-01-19T04:47:59.359Z,-0.94
2017-01-19T04:48:59.344Z,-0.97
2017-01-19T04:49:59.355Z,-0.91
2017-01-19T04:50:59.364Z,-0.81
2017-01-19T04:51:59.343Z,-0.87
2017-01-19T04:52:59.351Z,-1.02
2017-01-19T04:53:59.403Z,-0.86
2017-01-19T04:54:59.365Z,-0.95
2017-01-19T04:55:59.398Z,-0.99
2017-01-19T04:56:59.373Z,-1
2017-01-19T04:57:59.365Z,-1.12
2017-01-19T04:58:59.365Z,-1.2
2017-01-19T04:59:59.365Z,-1.18
2017-01-19T05:00:59.365Z,-1.07
2017-01-19T05:01:59.377Z,-1.02
2017-01-19T05:02:59.369Z,-1.07
2017-01-19T05:03:59.368Z,-1.24
2017-01-19T05:04:59.362Z,-1.15
2017-01-19T05:11:36.768Z,-1.33
2017-01-19T05:12:36.758Z,-1.28
2017-01-19T05:13:36.765Z,-1.38
2017-01-19T05:14:36.773Z,-1.33
2017-01-19T05:15:36.761Z,-1.3
2017-01-19T05:16:36.756Z,-1.46
2017-01-19T05:17:36.772Z,-1.43
2017-01-19T05:18:36.787Z,-1.56
2017-01-19T05:19:36.760Z,-1.43
2017-01-19T05:20:36.767Z,-1.45
2017-01-19T05:21:36.762Z,-1.66
2017-01-19T05:22:36.776Z,-1.43
2017-01-19T05:23:36.765Z,-1.59
2017-01-19T05:24:36.776Z,-1.41
2017-01-19T05:25:36.770Z,-1.51
2017-01-19T05:26:36.771Z,-1.49
2017-01-19T05:27:36.814Z,-1.46
2017-01-19T05:28:36.780Z,-1.74
2017-01-19T05:29:36.781Z,-1.72
2017-01-19T05:30:36.775Z,-1.63
2017-01-19T05:31:36.780Z,-1.62
2017-01-19T05:32:36.780Z,-1.8
2017-01-19T05:33:36.772Z,-1.74
2017-01-19T05:34:36.777Z,-1.66
2017-01-19T05:35:36.798Z,-1.62
2017-01-19T05:36:36.770Z,-1.81
2017-01-19T05:37:36.765Z,-1.85
2017-01-19T05:38:36.776Z,-1.92
2017-01-19T05:39:36.790Z,-1.84
2017-01-19T05:40:36.754Z,-1.92
2017-01-19T05:41:36.786Z,-2.03
2017-01-19T05:42:36.809Z,-1.96
2017-01-19T05:43:36.771Z,-1.92
2017-01-19T05:44:36.876Z,-1.98
2017-01-19T05:45:36.795Z,-1.93
2017-01-19T05:46:36.782Z,-2
2017-01-19T05:47:36.778Z,-1.99
2017-01-19T05:48:36.784Z,-1.98
2017-01-19T05:49:36.768Z,-2
2017-01-19T05:50:36.804Z,-1.96
2017-01-19T05:51:36.790Z,-2.06
2017-01-19T05:52:36.786Z,-1.99
2017-01-19T05:53:36.784Z,-2.05
2017-01-19T05:54:36.787Z,-2.16
2017-01-19T05:55:36.797Z,-2
2017-01-19T05:56:36.788Z,-1.98
2017-01-19T05:57:36.790Z,-2.05
2017-01-19T05:58:36.796Z,-1.99
2017-01-19T05:59:36.778Z,-2.1
2017-01-19T06:00:36.811Z,-2.06
2017-01-19T06:01:36.837Z,-1.99
2017-01-19T06:02:36.810Z,-1.9
2017-01-19T06:03:36.831Z,-2.16
2017-01-19T06:04:36.794Z,-2.11
2017-01-19T06:05:36.775Z,-2.13
2017-01-19T06:06:36.831Z,-2.1
2017-01-19T06:07:36.791Z,-2.14
2017-01-19T06:08:36.812Z,-2.2
2017-01-19T06:09:36.783Z,-2.1
2017-01-19T06:10:36.803Z,-2.02
2017-01-19T06:11:36.832Z,-2.05
2017-01-19T06:12:36.806Z,-2.06
2017-01-19T06:13:36.801Z,-2.03
2017-01-19T06:14:36.807Z,-2
2017-01-19T06:15:36.812Z,-2.08
2017-01-19T06:16:36.814Z,-2.03
2017-01-19T06:17:36.823Z,-2.11
2017-01-19T06:18:36.789Z,-2.11
2017-01-19T06:19:36.806Z,-2.06
2017-01-19T06:20:36.832Z,-2.11
2017-01-19T06:21:36.844Z,-2.06
2017-01-19T06:22:36.832Z,-2.11
2017-01-19T06:23:36.869Z,-2.11
2017-01-19T06:24:36.828Z,-2.13
2017-01-19T06:25:36.908Z,-2.06
2017-01-19T06:26:36.797Z,-2.17
2017-01-19T06:27:36.824Z,-2.08
2017-01-19T06:28:36.815Z,-2.13
2017-01-19T06:29:36.864Z,-2.24
2017-01-19T06:30:36.831Z,-2.14
2017-01-19T06:31:36.823Z,-2.36
2017-01-19T06:32:36.794Z,-2.16
2017-01-19T06:33:36.815Z,-2.2
2017-01-19T06:34:36.837Z,-2.11
2017-01-19T06:35:36.803Z,-2.16
2017-01-19T06:36:36.847Z,-2.11
2017-01-19T06:37:36.862Z,-2.28
2017-01-19T06:38:36.884Z,-2.16
2017-01-19T06:39:36.821Z,-2.24
2017-01-19T06:40:36.851Z,-2.29
2017-01-19T06:41:36.837Z,-2.35
2017-01-19T06:42:36.815Z,-2.28
2017-01-19T06:43:36.805Z,-2.53
2017-01-19T06:44:36.828Z,-2.33
2017-01-19T06:45:36.821Z,-2.38
2017-01-19T06:46:36.821Z,-2.39
2017-01-19T06:47:36.818Z,-2.35
2017-01-19T06:48:36.840Z,-2.39
2017-01-19T06:49:36.945Z,-2.39
2017-01-19T06:50:36.830Z,-2.39
2017-01-19T06:51:36.825Z,-2.5
2017-01-19T06:52:36.799Z,-2.47
2017-01-19T06:53:36.872Z,-2.45
2017-01-19T06:54:36.899Z,-2.47
2017-01-19T06:55:36.815Z,-2.45
2017-01-19T06:56:36.837Z,-2.51
2017-01-19T06:57:36.845Z,-2.48
2017-01-19T06:58:36.853Z,-2.43
2017-01-19T06:59:36.871Z,-2.48
2017-01-19T07:00:36.827Z,-2.5
2017-01-19T07:01:36.847Z,-2.47
2017-01-19T07:02:36.855Z,-2.57
2017-01-19T07:03:36.830Z,-2.51
2017-01-19T07:04:36.846Z,-2.51
2017-01-19T07:05:36.845Z,-2.53
2017-01-19T07:06:36.837Z,-2.54
2017-01-19T07:07:36.851Z,-2.48
2017-01-19T07:08:36.814Z,-2.42
2017-01-19T07:09:36.822Z,-2.47
2017-01-19T07:10:36.830Z,-2.48
2017-01-19T07:11:36.850Z,-2.54
2017-01-19T07:12:36.950Z,-2.5
2017-01-19T07:13:37.033Z,-2.54
2017-01-19T07:14:36.834Z,-2.58
2017-01-19T07:15:36.989Z,-2.54
2017-01-19T07:16:36.823Z,-2.58
2017-01-19T07:17:36.844Z,-2.57
2017-01-19T07:18:36.844Z,-2.58
2017-01-19T07:19:36.816Z,-2.71
2017-01-19T07:20:36.828Z,-2.66
2017-01-19T07:21:36.866Z,-2.54
2017-01-19T07:22:36.895Z,-2.68
2017-01-19T07:23:36.846Z,-2.56
2017-01-19T07:24:36.843Z,-2.61
2017-01-19T07:25:36.827Z,-2.74
2017-01-19T07:26:36.834Z,-2.66
2017-01-19T07:27:36.834Z,-2.71
2017-01-19T07:28:36.826Z,-2.69
2017-01-19T07:29:36.831Z,-2.66
2017-01-19T07:30:36.823Z,-2.58
2017-01-19T07:31:36.860Z,-2.61
2017-01-19T07:32:36.852Z,-2.56
2017-01-19T07:33:36.915Z,-2.68
2017-01-19T07:34:36.857Z,-2.68
2017-01-19T07:35:36.860Z,-2.64
2017-01-19T07:36:36.863Z,-2.61
2017-01-19T07:37:36.842Z,-2.5
2017-01-19T07:38:36.845Z,-2.58
2017-01-19T07:39:36.877Z,-2.48
2017-01-19T07:40:36.890Z,-2.5
2017-01-19T07:41:36.863Z,-2.48
2017-01-19T07:42:36.828Z,-2.39
2017-01-19T07:43:36.854Z,-2.43
2017-01-19T07:44:36.869Z,-2.47
2017-01-19T07:45:36.879Z,-2.47
2017-01-19T07:46:36.898Z,-2.43
2017-01-19T07:47:36.870Z,-2.42
2017-01-19T07:48:36.837Z,-2.29
2017-01-19T07:49:36.855Z,-2.33
2017-01-19T07:50:36.868Z,-2.32
2017-01-19T07:51:36.882Z,-2.21
2017-01-19T07:52:36.898Z,-2.26
2017-01-19T07:53:36.859Z,-2.13
2017-01-19T07:54:36.861Z,-2.11
2017-01-19T07:55:36.853Z,-2.16
2017-01-19T07:56:36.963Z,-2.21
2017-01-19T07:57:36.840Z,-1.98
2017-01-19T07:58:36.858Z,-1.96
2017-01-19T07:59:36.911Z,-2
2017-01-19T08:00:36.855Z,-1.95
2017-01-19T08:01:36.862Z,-1.7
2017-01-19T08:02:36.867Z,-1.82
2017-01-19T08:03:36.953Z,-1.72
2017-01-19T08:04:36.875Z,-1.77
2017-01-19T08:05:36.901Z,-1.7
2017-01-19T08:06:37.026Z,-1.49
2017-01-19T08:07:36.850Z,-1.33
2017-01-19T08:08:36.862Z,-1.42
2017-01-19T08:09:36.885Z,-1.46
2017-01-19T08:10:36.872Z,-1.33
2017-01-19T08:11:36.873Z,-1.36
2017-01-19T08:12:36.876Z,-1.38
2017-01-19T08:13:36.911Z,-1.39
2017-01-19T08:14:36.846Z,-1.21
2017-01-19T08:15:36.888Z,-1.18
2017-01-19T08:16:36.908Z,-1.23
2017-01-19T08:17:36.860Z,-1.18
2017-01-19T08:18:36.863Z,-1.24
2017-01-19T08:19:36.900Z,-1.17
2017-01-19T08:20:36.879Z,-1.1
2017-01-19T08:21:36.875Z,-1.02
2017-01-19T08:22:36.874Z,-1.15
2017-01-19T08:23:36.885Z,-1.02
2017-01-19T08:24:36.890Z,-1.09
2017-01-19T08:25:36.928Z,-1.1
2017-01-19T08:26:36.897Z,-1.09
2017-01-19T08:27:36.928Z,-1.02
2017-01-19T08:28:36.874Z,-0.95
2017-01-19T08:29:36.891Z,-1.02
2017-01-19T08:30:36.928Z,-0.84
2017-01-19T08:31:36.922Z,-0.86
2017-01-19T08:32:36.982Z,-0.73
2017-01-19T08:33:36.947Z,-0.83
2017-01-19T08:34:36.878Z,-0.78
2017-01-19T08:35:36.872Z,-0.63
2017-01-19T08:36:36.965Z,-0.63
2017-01-19T08:37:36.887Z,-0.57
2017-01-19T08:38:36.963Z,-0.62
2017-01-19T08:39:36.994Z,-0.63
2017-01-19T08:40:36.893Z,-0.51
2017-01-19T08:41:36.900Z,-0.55
2017-01-19T08:42:37.034Z,-0.5
2017-01-19T08:43:36.885Z,-0.55
2017-01-19T08:44:36.909Z,-0.45
2017-01-19T08:45:36.935Z,-0.52
2017-01-19T08:46:36.903Z,-0.47
2017-01-19T08:47:36.930Z,-0.36
2017-01-19T08:48:36.929Z,-0.5
2017-01-19T08:49:37.021Z,-0.59
2017-01-19T08:50:36.920Z,-0.44
2017-01-19T08:51:36.946Z,-0.47
2017-01-19T08:52:36.940Z,-0.44
2017-01-19T08:53:36.893Z,-0.37
2017-01-19T08:54:36.900Z,-0.44
2017-01-19T08:55:36.917Z,-0.54
2017-01-19T08:56:36.897Z,-0.57
2017-01-19T08:57:36.902Z,-0.47
2017-01-19T08:58:36.945Z,-0.39
2017-01-19T08:59:36.887Z,-0.5
2017-01-19T09:00:36.922Z,-0.55
2017-01-19T09:01:36.932Z,-0.57
2017-01-19T09:02:36.993Z,-0.51
2017-01-19T09:03:36.914Z,-0.52
2017-01-19T09:04:36.919Z,-0.59
2017-01-19T09:05:36.976Z,-0.54
2017-01-19T09:06:36.880Z,-0.55
2017-01-19T09:07:36.894Z,-0.54
2017-01-19T09:08:36.922Z,-0.45
2017-01-19T09:09:36.935Z,-0.52
2017-01-19T09:10:36.892Z,-0.45
2017-01-19T09:11:36.916Z,-0.6
2017-01-19T09:12:36.917Z,-0.51
2017-01-19T09:13:36.904Z,-0.65
2017-01-19T09:14:36.911Z,-0.66
2017-01-19T09:15:36.912Z,-0.57
2017-01-19T09:16:36.937Z,-0.57
2017-01-19T09:17:36.945Z,-0.63
2017-01-19T09:18:37.001Z,-0.68
2017-01-19T09:19:36.913Z,-0.5
2017-01-19T09:20:36.919Z,-0.57
2017-01-19T09:21:37.004Z,-0.73
2017-01-19T09:22:36.901Z,-0.62
2017-01-19T09:23:36.908Z,-0.66
2017-01-19T09:24:36.890Z,-0.8
2017-01-19T09:25:36.908Z,-0.65
2017-01-19T09:26:36.909Z,-0.8
2017-01-19T09:27:36.928Z,-0.6
2017-01-19T09:28:36.992Z,-0.8
2017-01-19T09:29:36.991Z,-0.73
2017-01-19T09:30:36.923Z,-0.78
2017-01-19T09:31:36.920Z,-0.62
2017-01-19T09:32:36.943Z,-0.83
2017-01-19T09:33:36.927Z,-0.8
2017-01-19T09:34:37.029Z,-0.73
2017-01-19T09:35:36.914Z,-0.77
2017-01-19T09:36:36.939Z,-0.62
2017-01-19T09:37:36.966Z,-0.7
2017-01-19T09:38:36.931Z,-0.89
2017-01-19T09:39:37.038Z,-0.72
2017-01-19T09:40:36.904Z,-0.68
2017-01-19T09:41:36.952Z,-0.63
2017-01-19T09:42:36.915Z,-0.77
2017-01-19T09:43:36.916Z,-0.48
2017-01-19T09:44:36.940Z,-0.51
2017-01-19T09:45:37.068Z,-0.45
2017-01-19T09:46:36.944Z,-0.29
2017-01-19T09:47:37.149Z,-0.34
2017-01-19T09:48:36.912Z,-0.24
2017-01-19T09:53:03.848Z,0.03
2017-01-19T09:54:03.799Z,0.18
2017-01-19T09:55:03.944Z,0.18
2017-01-19T09:56:03.887Z,0.18
2017-01-19T09:57:03.809Z,0.23
2017-01-19T09:58:03.806Z,0.41
2017-01-19T09:59:03.798Z,0.34
2017-01-19T10:00:03.874Z,0.39
2017-01-19T10:01:03.843Z,0.57
2017-01-19T10:02:03.780Z,0.61
2017-01-19T10:03:03.804Z,0.83
2017-01-19T10:04:03.795Z,0.79
2017-01-19T10:05:03.893Z,0.88
2017-01-19T10:06:03.892Z,0.83
2017-01-19T10:07:03.881Z,0.94
2017-01-19T10:08:03.940Z,0.98
2017-01-19T10:09:03.803Z,1.15
2017-01-19T10:10:03.806Z,1.08
2017-01-19T10:11:03.830Z,1.26
2017-01-19T10:12:03.808Z,1.32
2017-01-19T10:13:03.804Z,1.33
2017-01-19T10:14:03.812Z,1.47
2017-01-19T10:15:03.828Z,1.44
2017-01-19T10:16:03.822Z,1.62
2017-01-19T10:17:03.803Z,1.61
2017-01-19T10:18:03.829Z,1.75
2017-01-19T10:19:03.802Z,1.75
2017-01-19T10:20:03.875Z,1.87
2017-01-19T10:21:03.915Z,1.98
2017-01-19T10:22:03.816Z,1.93
2017-01-19T10:23:03.814Z,2.08
2017-01-19T10:24:03.824Z,2.09
2017-01-19T10:25:03.803Z,2.19
2017-01-19T10:26:03.802Z,2.2
2017-01-19T10:27:03.803Z,2.17
2017-01-19T10:28:03.813Z,2.34
2017-01-19T10:29:03.816Z,2.37
2017-01-19T10:30:03.882Z,2.28
2017-01-19T10:31:03.887Z,2.48
2017-01-19T10:32:03.847Z,2.41
2017-01-19T10:33:03.807Z,2.52
2017-01-19T10:34:03.812Z,2.46
2017-01-19T10:35:03.813Z,2.55
2017-01-19T10:36:03.806Z,2.67
2017-01-19T10:37:03.889Z,2.7
2017-01-19T10:38:03.818Z,2.71
2017-01-19T10:39:03.813Z,2.79
2017-01-19T10:40:03.827Z,2.89
2017-01-19T10:41:03.814Z,3.03
2017-01-19T10:42:03.832Z,2.94
2017-01-19T10:43:03.791Z,2.85
2017-01-19T10:44:03.811Z,2.95
2017-01-19T10:45:03.830Z,3.02
2017-01-19T10:46:03.825Z,3.05
2017-01-19T10:47:03.820Z,2.89
2017-01-19T10:48:03.818Z,2.95
2017-01-19T10:49:03.842Z,2.97
2017-01-19T10:50:03.828Z,2.92
2017-01-19T10:51:03.823Z,2.98
2017-01-19T10:52:03.826Z,2.92
2017-01-19T10:53:03.819Z,2.95
2017-01-19T10:54:03.819Z,2.97
2017-01-19T10:55:03.820Z,2.94
2017-01-19T10:56:03.850Z,2.87
2017-01-19T10:57:03.839Z,2.87
2017-01-19T10:58:03.838Z,2.94
2017-01-19T10:59:03.830Z,2.92
2017-01-19T11:00:03.859Z,2.98
2017-01-19T11:01:03.837Z,2.87
2017-01-19T11:02:03.853Z,2.87
2017-01-19T11:03:03.847Z,2.85
2017-01-19T11:04:03.837Z,2.82
2017-01-19T11:05:03.846Z,2.77
2017-01-19T11:06:03.934Z,2.66
2017-01-19T11:07:03.878Z,2.77
2017-01-19T11:08:03.839Z,2.69
2017-01-19T11:09:03.863Z,2.73
2017-01-19T11:10:03.841Z,2.7
2017-01-19T11:11:03.891Z,2.73
2017-01-19T11:12:03.824Z,2.53
2017-01-19T11:13:03.834Z,2.51
2017-01-19T11:14:03.853Z,2.56
2017-01-19T11:15:03.856Z,2.52
2017-01-19T11:16:03.855Z,2.34
2017-01-19T11:17:03.845Z,2.22
2017-01-19T11:18:03.848Z,2.2
2017-01-19T11:19:03.859Z,2.27
2017-01-19T11:20:03.857Z,2.35
2017-01-19T11:21:03.855Z,2.27
2017-01-19T11:22:03.838Z,2.12
2017-01-19T11:23:03.844Z,2.09
2017-01-19T11:24:03.842Z,2.09
2017-01-19T11:25:03.841Z,2.09
2017-01-19T11:26:03.881Z,2.04
2017-01-19T11:27:03.847Z,1.85
2017-01-19T11:28:03.886Z,1.99
2017-01-19T11:29:03.861Z,1.9
2017-01-19T11:30:03.848Z,1.87
2017-01-19T11:31:03.880Z,1.65
2017-01-19T11:32:03.855Z,1.79
2017-01-19T11:33:03.856Z,1.76
2017-01-19T11:34:03.848Z,1.65
2017-01-19T11:35:03.879Z,1.76
2017-01-19T11:36:03.917Z,1.62
2017-01-19T11:37:03.877Z,1.64
2017-01-19T11:38:03.863Z,1.71
2017-01-19T11:39:03.866Z,1.55
2017-01-19T11:40:03.870Z,1.58
2017-01-19T11:41:03.854Z,1.65
2017-01-19T11:42:03.862Z,1.6
2017-01-19T11:43:03.894Z,1.6
2017-01-19T11:44:03.894Z,1.71
2017-01-19T11:45:03.945Z,1.61
2017-01-19T11:46:03.858Z,1.64
2017-01-19T11:47:03.877Z,1.65
2017-01-19T11:48:03.901Z,1.6
2017-01-19T11:49:03.877Z,1.75
2017-01-19T11:50:03.995Z,1.69
2017-01-19T11:51:03.972Z,1.68
2017-01-19T11:52:03.879Z,1.83
2017-01-19T11:53:03.890Z,1.78
2017-01-19T11:54:03.867Z,1.87
2017-01-19T11:55:03.870Z,1.89
2017-01-19T11:56:03.887Z,1.93
2017-01-19T11:57:03.896Z,1.93
2017-01-19T11:58:03.912Z,1.87
2017-01-19T11:59:03.884Z,1.97
2017-01-19T12:00:03.931Z,2.06
2017-01-19T12:01:04.152Z,1.97
2017-01-19T12:02:03.889Z,1.97
2017-01-19T12:03:03.891Z,2.04
2017-01-19T12:04:03.888Z,1.99
2017-01-19T12:05:03.953Z,1.97
2017-01-19T12:06:03.924Z,2.09
2017-01-19T12:07:06.132Z,2.06
2017-01-19T12:08:03.893Z,2.15
2017-01-19T12:09:03.901Z,2.12
2017-01-19T12:10:03.898Z,2.16
2017-01-19T12:11:03.961Z,2.15
2017-01-19T12:12:03.918Z,2.33
2017-01-19T12:13:03.964Z,2.27
2017-01-19T12:14:03.902Z,2.34
2017-01-19T12:15:03.883Z,2.31
2017-01-19T12:16:03.903Z,2.34
2017-01-19T12:17:03.925Z,2.28
2017-01-19T12:18:03.921Z,2.34
2017-01-19T12:19:04.631Z,2.38
2017-01-19T12:20:03.882Z,2.55
2017-01-19T12:21:03.972Z,2.56
2017-01-19T12:22:03.958Z,2.44
2017-01-19T12:23:03.913Z,2.49
2017-01-19T12:24:03.904Z,2.58
2017-01-19T12:25:03.991Z,2.7
2017-01-19T12:26:03.884Z,2.61
2017-01-19T12:27:03.913Z,2.53
2017-01-19T12:28:03.924Z,2.56
2017-01-19T12:29:03.885Z,2.67
2017-01-19T12:30:03.936Z,2.79
2017-01-19T12:31:03.902Z,2.51
2017-01-19T12:32:03.980Z,2.77
2017-01-19T12:33:03.915Z,2.7
2017-01-19T12:34:03.951Z,2.64
2017-01-19T12:35:03.889Z,2.74
2017-01-19T12:36:03.907Z,2.67
2017-01-19T12:37:03.924Z,2.82
2017-01-19T12:38:03.956Z,2.71
2017-01-19T12:39:04.023Z,2.79
2017-01-19T12:40:03.909Z,2.84
2017-01-19T12:41:03.926Z,2.97
2017-01-19T12:42:03.966Z,2.88
2017-01-19T12:43:03.928Z,2.81
2017-01-19T12:44:03.950Z,2.89
2017-01-19T12:45:04.085Z,2.88
2017-01-19T12:46:03.961Z,3.06
2017-01-19T12:47:03.942Z,2.89
2017-01-19T12:48:03.920Z,3.09
2017-01-19T12:49:03.918Z,3.13
2017-01-19T12:50:03.905Z,2.91
2017-01-19T12:51:03.930Z,2.95
2017-01-19T12:52:03.915Z,3.03
2017-01-19T12:53:03.977Z,3.07
2017-01-19T12:54:03.905Z,3.05
2017-01-19T12:55:03.939Z,3
2017-01-19T12:56:03.935Z,3.18
2017-01-19T12:57:03.937Z,3.06
2017-01-19T12:58:03.949Z,3.25
2017-01-19T12:59:03.926Z,3.18
2017-01-19T13:00:03.943Z,3.27
2017-01-19T13:01:03.937Z,3.15
2017-01-19T13:02:03.924Z,3.16
2017-01-19T13:03:03.964Z,3.27
2017-01-19T13:04:03.961Z,3.21
2017-01-19T13:05:03.898Z,3.21
2017-01-19T13:06:03.915Z,3.28
2017-01-19T13:07:04.064Z,3.54
2017-01-19T13:08:04.545Z,3.42
2017-01-19T13:09:04.217Z,3.44
2017-01-19T13:10:04.215Z,3.49
2017-01-19T13:11:03.926Z,3.67
2017-01-19T13:12:04.318Z,3.58
2017-01-19T13:13:04.209Z,3.64
2017-01-19T13:14:04.074Z,3.61
2017-01-19T13:15:03.989Z,3.62
2017-01-19T13:16:04.271Z,3.61
2017-01-19T13:17:04.485Z,3.62
2017-01-19T13:18:05.651Z,3.61
2017-01-19T13:19:06.986Z,3.7
2017-01-19T13:20:03.970Z,3.65
2017-01-19T13:21:04.123Z,3.76
2017-01-19T13:22:04.066Z,3.61
2017-01-19T13:23:04.115Z,3.68
2017-01-19T13:24:03.923Z,3.75
2017-01-19T13:25:03.925Z,3.94
2017-01-19T13:26:03.940Z,3.57
2017-01-19T13:27:04.087Z,3.78
2017-01-19T13:28:04.194Z,3.72